createdAt,value
2018-02-25T00:00:47.366Z,1027.72
2018-02-25T00:01:57.328Z,1027.66
2018-02-25T00:03:07.039Z,1027.64
2018-02-25T00:04:16.739Z,1027.62
2018-02-25T00:05:26.721Z,1027.64
2018-02-25T00:06:36.421Z,1027.63
2018-02-25T00:07:46.115Z,1027.64
2018-02-25T00:08:56.092Z,1027.65
2018-02-25T00:10:06.057Z,1027.62
2018-02-25T00:11:16.010Z,1027.6
2018-02-25T00:12:25.975Z,1027.56
2018-02-25T00:13:35.423Z,1027.56
2018-02-25T00:14:45.369Z,1027.57
2018-02-25T00:15:55.332Z,1027.53
2018-02-25T00:17:05.023Z,1027.54
2018-02-25T00:18:14.718Z,1027.53
2018-02-25T00:19:24.684Z,1027.55
2018-02-25T00:20:34.653Z,1027.53
2018-02-25T00:21:44.611Z,1027.51
2018-02-25T00:22:54.619Z,1027.56
2018-02-25T00:24:04.564Z,1027.54
2018-02-25T00:25:14.518Z,1027.54
2018-02-25T00:26:24.483Z,1027.57
2018-02-25T00:27:34.196Z,1027.57
2018-02-25T00:28:43.883Z,1027.56
2018-02-25T00:29:53.832Z,1027.54
2018-02-25T00:31:03.009Z,1027.52
2018-02-25T00:32:12.698Z,1027.55
2018-02-25T00:33:22.672Z,1027.56
2018-02-25T00:34:32.371Z,1027.52
2018-02-25T00:35:42.338Z,1027.51
2018-02-25T00:36:52.038Z,1027.53
2018-02-25T00:38:02.005Z,1027.54
2018-02-25T00:39:11.959Z,1027.54
2018-02-25T00:40:21.645Z,1027.57
2018-02-25T00:41:31.097Z,1027.53
2018-02-25T00:42:41.062Z,1027.55
2018-02-25T00:43:50.756Z,1027.54
2018-02-25T00:45:00.458Z,1027.54
2018-02-25T00:46:10.161Z,1027.53
2018-02-25T00:47:20.131Z,1027.53
2018-02-25T00:48:29.306Z,1027.51
2018-02-25T00:49:39.260Z,1027.52
2018-02-25T00:50:48.945Z,1027.51
2018-02-25T00:51:58.899Z,1027.44
2018-02-25T00:53:08.336Z,1027.49
2018-02-25T00:54:17.779Z,1027.48
2018-02-25T00:55:27.492Z,1027.46
2018-02-25T00:56:36.934Z,1027.48
2018-02-25T00:57:46.624Z,1027.46
2018-02-25T00:58:56.580Z,1027.46
2018-02-25T01:00:06.304Z,1027.46
2018-02-25T01:01:15.739Z,1027.42
2018-02-25T01:02:25.688Z,1027.44
2018-02-25T01:03:34.862Z,1027.43
2018-02-25T01:04:44.817Z,1027.48
2018-02-25T01:05:54.517Z,1027.46
2018-02-25T01:07:04.466Z,1027.42
2018-02-25T01:08:14.213Z,1027.42
2018-02-25T01:09:23.911Z,1027.43
2018-02-25T01:10:33.605Z,1027.4
2018-02-25T01:11:43.301Z,1027.43
2018-02-25T01:12:52.736Z,1027.46
2018-02-25T01:14:02.696Z,1027.44
2018-02-25T01:15:12.408Z,1027.42
2018-02-25T01:16:22.365Z,1027.39
2018-02-25T01:17:32.325Z,1027.44
2018-02-25T01:18:42.007Z,1027.41
2018-02-25T01:19:51.446Z,1027.4
2018-02-25T01:21:01.403Z,1027.37
2018-02-25T01:22:11.103Z,1027.36
2018-02-25T01:23:20.791Z,1027.38
2018-02-25T01:24:30.731Z,1027.33
2018-02-25T01:25:40.430Z,1027.3
2018-02-25T01:26:50.115Z,1027.33
2018-02-25T01:27:59.298Z,1027.34
2018-02-25T01:29:08.996Z,1027.26
2018-02-25T01:30:18.440Z,1027.29
2018-02-25T01:31:28.404Z,1027.27
2018-02-25T01:32:38.107Z,1027.27
2018-02-25T01:33:47.272Z,1027.3
2018-02-25T01:34:56.975Z,1027.25
2018-02-25T01:36:06.661Z,1027.26
2018-02-25T01:37:16.615Z,1027.28
2018-02-25T01:38:26.049Z,1027.28
2018-02-25T01:39:35.994Z,1027.33
2018-02-25T01:40:45.945Z,1027.33
2018-02-25T01:41:55.902Z,1027.33
2018-02-25T01:43:05.085Z,1027.36
2018-02-25T01:44:14.520Z,1027.32
2018-02-25T01:45:24.477Z,1027.34
2018-02-25T01:46:33.929Z,1027.34
2018-02-25T01:47:43.880Z,1027.32
2018-02-25T01:48:53.572Z,1027.33
2018-02-25T01:50:03.552Z,1027.31
2018-02-25T01:51:13.502Z,1027.31
2018-02-25T01:52:22.941Z,1027.33
2018-02-25T01:53:32.630Z,1027.34
2018-02-25T01:54:42.582Z,1027.31
2018-02-25T01:55:52.525Z,1027.32
2018-02-25T01:57:02.216Z,1027.32
2018-02-25T01:58:11.397Z,1027.3
2018-02-25T01:59:21.492Z,1027.26
2018-02-25T02:00:31.190Z,1027.24
2018-02-25T02:01:41.300Z,1027.22
2018-02-25T02:02:51.264Z,1027.27
2018-02-25T02:04:01.214Z,1027.29
2018-02-25T02:05:10.924Z,1027.28
2018-02-25T02:06:20.624Z,1027.28
2018-02-25T02:07:30.323Z,1027.27
2018-02-25T02:08:40.014Z,1027.21
2018-02-25T02:09:49.446Z,1027.21
2018-02-25T02:10:58.893Z,1027.26
2018-02-25T02:12:08.324Z,1027.24
2018-02-25T02:13:17.755Z,1027.28
2018-02-25T02:14:27.726Z,1027.29
2018-02-25T02:15:37.417Z,1027.29
2018-02-25T02:16:47.378Z,1027.27
2018-02-25T02:17:57.322Z,1027.31
2018-02-25T02:19:06.756Z,1027.29
2018-02-25T02:20:16.719Z,1027.24
2018-02-25T02:21:26.687Z,1027.32
2018-02-25T02:22:36.636Z,1027.26
2018-02-25T02:23:46.633Z,1027.33
2018-02-25T02:24:56.579Z,1027.33
2018-02-25T02:26:06.261Z,1027.3
2018-02-25T02:27:15.961Z,1027.28
2018-02-25T02:28:25.656Z,1027.28
2018-02-25T02:29:34.823Z,1027.28
2018-02-25T02:30:44.782Z,1027.28
2018-02-25T02:31:54.501Z,1027.27
2018-02-25T02:33:04.219Z,1027.31
2018-02-25T02:34:14.183Z,1027.25
2018-02-25T02:35:23.886Z,1027.34
2018-02-25T02:36:33.956Z,1027.31
2018-02-25T02:37:43.385Z,1027.28
2018-02-25T02:38:53.093Z,1027.34
2018-02-25T02:40:02.800Z,1027.36
2018-02-25T02:41:12.772Z,1027.36
2018-02-25T02:42:22.468Z,1027.37
2018-02-25T02:43:32.260Z,1027.38
2018-02-25T02:44:42.245Z,1027.35
2018-02-25T02:45:51.942Z,1027.39
2018-02-25T02:47:01.385Z,1027.36
2018-02-25T02:48:11.083Z,1027.38
2018-02-25T02:49:21.040Z,1027.42
2018-02-25T02:50:30.995Z,1027.38
2018-02-25T02:51:40.436Z,1027.38
2018-02-25T02:52:50.387Z,1027.35
2018-02-25T02:54:00.330Z,1027.38
2018-02-25T02:55:10.053Z,1027.38
2018-02-25T02:56:20.042Z,1027.39
2018-02-25T02:57:29.736Z,1027.39
2018-02-25T02:58:39.432Z,1027.4
2018-02-25T02:59:49.143Z,1027.38
2018-02-25T03:00:58.845Z,1027.4
2018-02-25T03:02:08.280Z,1027.41
2018-02-25T03:03:17.754Z,1027.43
2018-02-25T03:04:28.006Z,1027.46
2018-02-25T03:05:37.701Z,1027.43
2018-02-25T03:06:47.667Z,1027.37
2018-02-25T03:07:57.625Z,1027.43
2018-02-25T03:09:07.329Z,1027.46
2018-02-25T03:10:17.020Z,1027.42
2018-02-25T03:11:26.976Z,1027.42
2018-02-25T03:12:36.917Z,1027.44
2018-02-25T03:13:46.606Z,1027.42
2018-02-25T03:14:56.027Z,1027.44
2018-02-25T03:16:05.740Z,1027.47
2018-02-25T03:17:15.698Z,1027.42
2018-02-25T03:18:25.645Z,1027.46
2018-02-25T03:19:35.073Z,1027.5
2018-02-25T03:20:44.766Z,1027.46
2018-02-25T03:21:54.454Z,1027.41
2018-02-25T03:23:04.140Z,1027.46
2018-02-25T03:24:14.080Z,1027.42
2018-02-25T03:25:24.078Z,1027.45
2018-02-25T03:26:34.041Z,1027.46
2018-02-25T03:27:43.474Z,1027.46
2018-02-25T03:28:53.187Z,1027.43
2018-02-25T03:30:02.892Z,1027.4
2018-02-25T03:31:12.350Z,1027.41
2018-02-25T03:32:21.791Z,1027.38
2018-02-25T03:33:31.763Z,1027.48
2018-02-25T03:34:41.210Z,1027.41
2018-02-25T03:35:50.904Z,1027.37
2018-02-25T03:37:00.853Z,1027.4
2018-02-25T03:38:10.546Z,1027.39
2018-02-25T03:39:20.500Z,1027.42
2018-02-25T03:40:30.185Z,1027.42
2018-02-25T03:41:40.133Z,1027.4
2018-02-25T03:42:49.828Z,1027.36
2018-02-25T03:43:59.778Z,1027.43
2018-02-25T03:45:09.471Z,1027.36
2018-02-25T03:46:19.162Z,1027.43
2018-02-25T03:47:28.856Z,1027.43
2018-02-25T03:48:38.804Z,1027.41
2018-02-25T03:49:48.492Z,1027.41
2018-02-25T03:50:57.924Z,1027.4
2018-02-25T03:52:07.608Z,1027.37
2018-02-25T03:53:17.041Z,1027.39
2018-02-25T03:54:26.987Z,1027.41
2018-02-25T03:55:36.678Z,1027.41
2018-02-25T03:56:46.784Z,1027.37
2018-02-25T03:57:56.723Z,1027.42
2018-02-25T03:59:06.147Z,1027.35
2018-02-25T04:00:15.840Z,1027.41
2018-02-25T04:01:25.778Z,1027.37
2018-02-25T04:02:35.721Z,1027.39
2018-02-25T04:03:45.714Z,1027.38
2018-02-25T04:04:55.662Z,1027.34
2018-02-25T04:06:05.632Z,1027.32
2018-02-25T04:07:15.315Z,1027.3
2018-02-25T04:08:25.011Z,1027.3
2018-02-25T04:09:34.964Z,1027.33
2018-02-25T04:10:44.933Z,1027.35
2018-02-25T04:11:54.632Z,1027.36
2018-02-25T04:13:04.581Z,1027.35
2018-02-25T04:14:14.274Z,1027.32
2018-02-25T04:15:24.229Z,1027.34
2018-02-25T04:16:34.184Z,1027.32
2018-02-25T04:17:43.883Z,1027.34
2018-02-25T04:18:53.569Z,1027.37
2018-02-25T04:20:03.527Z,1027.37
2018-02-25T04:21:13.472Z,1027.34
2018-02-25T04:22:23.420Z,1027.39
2018-02-25T04:23:33.362Z,1027.35
2018-02-25T04:24:42.786Z,1027.36
2018-02-25T04:25:52.735Z,1027.37
2018-02-25T04:27:02.430Z,1027.37
2018-02-25T04:28:12.119Z,1027.33
2018-02-25T04:29:22.068Z,1027.35
2018-02-25T04:30:31.751Z,1027.36
2018-02-25T04:31:41.453Z,1027.34
2018-02-25T04:32:50.885Z,1027.35
2018-02-25T04:34:00.871Z,1027.34
2018-02-25T04:35:10.303Z,1027.32
2018-02-25T04:36:20.244Z,1027.32
2018-02-25T04:37:30.195Z,1027.29
2018-02-25T04:38:40.142Z,1027.29
2018-02-25T04:39:50.085Z,1027.33
2018-02-25T04:41:00.033Z,1027.28
2018-02-25T04:42:09.988Z,1027.3
2018-02-25T04:43:19.946Z,1027.31
2018-02-25T04:44:29.908Z,1027.32
2018-02-25T04:45:39.346Z,1027.3
2018-02-25T04:46:49.044Z,1027.3
2018-02-25T04:47:58.746Z,1027.27
2018-02-25T04:49:08.445Z,1027.28
2018-02-25T04:50:17.869Z,1027.3
2018-02-25T04:51:27.808Z,1027.3
2018-02-25T04:52:37.495Z,1027.28
2018-02-25T04:53:47.174Z,1027.32
2018-02-25T04:54:57.117Z,1027.28
2018-02-25T04:56:07.064Z,1027.28
2018-02-25T04:57:16.752Z,1027.27
2018-02-25T04:58:26.445Z,1027.3
2018-02-25T04:59:36.136Z,1027.29
2018-02-25T05:00:45.854Z,1027.33
2018-02-25T05:01:55.538Z,1027.28
2018-02-25T05:03:05.226Z,1027.29
2018-02-25T05:04:14.402Z,1027.27
2018-02-25T05:05:24.382Z,1027.25
2018-02-25T05:06:34.075Z,1027.25
2018-02-25T05:07:43.786Z,1027.24
2018-02-25T05:08:53.467Z,1027.29
2018-02-25T05:10:03.419Z,1027.25
2018-02-25T05:11:13.121Z,1027.26
2018-02-25T05:12:23.085Z,1027.25
2018-02-25T05:13:33.042Z,1027.24
2018-02-25T05:14:43.074Z,1027.26
2018-02-25T05:15:53.281Z,1027.29
2018-02-25T05:17:03.228Z,1027.28
2018-02-25T05:18:12.918Z,1027.29
2018-02-25T05:19:22.346Z,1027.24
2018-02-25T05:20:32.025Z,1027.26
2018-02-25T05:21:41.974Z,1027.21
2018-02-25T05:22:51.395Z,1027.18
2018-02-25T05:24:00.837Z,1027.16
2018-02-25T05:25:10.801Z,1027.2
2018-02-25T05:26:20.744Z,1027.17
2018-02-25T05:27:30.475Z,1027.17
2018-02-25T05:28:40.133Z,1027.2
2018-02-25T05:29:50.094Z,1027.28
2018-02-25T05:31:00.060Z,1027.27
2018-02-25T05:32:10.010Z,1027.31
2018-02-25T05:33:19.697Z,1027.35
2018-02-25T05:34:29.385Z,1027.34
2018-02-25T05:35:39.340Z,1027.35
2018-02-25T05:36:49.018Z,1027.42
2018-02-25T05:37:58.973Z,1027.42
2018-02-25T05:39:08.662Z,1027.38
2018-02-25T05:40:18.350Z,1027.4
2018-02-25T05:41:28.297Z,1027.39
2018-02-25T05:42:38.242Z,1027.42
2018-02-25T05:43:48.183Z,1027.45
2018-02-25T05:44:58.135Z,1027.42
2018-02-25T05:46:07.832Z,1027.46
2018-02-25T05:47:17.780Z,1027.42
2018-02-25T05:48:27.726Z,1027.42
2018-02-25T05:49:37.707Z,1027.41
2018-02-25T05:50:47.666Z,1027.45
2018-02-25T05:51:57.611Z,1027.47
2018-02-25T05:53:07.564Z,1027.45
2018-02-25T05:54:17.004Z,1027.47
2018-02-25T05:55:26.437Z,1027.51
2018-02-25T05:56:36.380Z,1027.48
2018-02-25T05:57:46.100Z,1027.48
2018-02-25T05:58:55.807Z,1027.51
2018-02-25T06:00:05.773Z,1027.52
2018-02-25T06:01:15.716Z,1027.48
2018-02-25T06:02:25.408Z,1027.55
2018-02-25T06:03:35.350Z,1027.55
2018-02-25T06:04:45.302Z,1027.58
2018-02-25T06:05:55.243Z,1027.58
2018-02-25T06:07:04.936Z,1027.56
2018-02-25T06:08:14.907Z,1027.58
2018-02-25T06:09:24.857Z,1027.56
2018-02-25T06:10:34.545Z,1027.57
2018-02-25T06:11:44.234Z,1027.6
2018-02-25T06:12:54.188Z,1027.6
2018-02-25T06:14:03.619Z,1027.6
2018-02-25T06:15:13.584Z,1027.64
2018-02-25T06:16:23.608Z,1027.61
2018-02-25T06:17:33.553Z,1027.64
2018-02-25T06:18:43.495Z,1027.64
2018-02-25T06:19:53.459Z,1027.58
2018-02-25T06:21:03.413Z,1027.64
2018-02-25T06:22:13.101Z,1027.62
2018-02-25T06:23:22.800Z,1027.61
2018-02-25T06:24:32.241Z,1027.67
2018-02-25T06:25:42.210Z,1027.71
2018-02-25T06:26:52.162Z,1027.72
2018-02-25T06:28:01.849Z,1027.7
2018-02-25T06:29:11.795Z,1027.72
2018-02-25T06:30:21.747Z,1027.77
2018-02-25T06:31:31.698Z,1027.7
2018-02-25T06:32:41.648Z,1027.7
2018-02-25T06:33:51.602Z,1027.65
2018-02-25T06:35:01.295Z,1027.68
2018-02-25T06:36:11.265Z,1027.7
2018-02-25T06:37:21.214Z,1027.65
2018-02-25T06:38:31.167Z,1027.69
2018-02-25T06:39:41.135Z,1027.69
2018-02-25T06:40:51.084Z,1027.67
2018-02-25T06:42:01.035Z,1027.63
2018-02-25T06:43:10.990Z,1027.64
2018-02-25T06:44:20.970Z,1027.65
2018-02-25T06:45:30.920Z,1027.63
2018-02-25T06:46:40.893Z,1027.62
2018-02-25T06:47:50.400Z,1027.6
2018-02-25T06:49:00.421Z,1027.61
2018-02-25T06:50:10.112Z,1027.58
2018-02-25T06:51:19.549Z,1027.62
2018-02-25T06:52:29.247Z,1027.63
2018-02-25T06:53:38.937Z,1027.58
2018-02-25T06:54:48.898Z,1027.57
2018-02-25T06:55:58.321Z,1027.6
2018-02-25T06:57:08.011Z,1027.55
2018-02-25T06:58:17.443Z,1027.59
2018-02-25T06:59:27.135Z,1027.5
2018-02-25T07:00:36.918Z,1027.5
2018-02-25T07:01:46.611Z,1027.52
2018-02-25T07:02:56.552Z,1027.52
2018-02-25T07:04:05.982Z,1027.49
2018-02-25T07:05:15.672Z,1027.53
2018-02-25T07:06:25.623Z,1027.52
2018-02-25T07:07:35.573Z,1027.52
2018-02-25T07:08:45.533Z,1027.55
2018-02-25T07:09:55.224Z,1027.53
2018-02-25T07:11:05.336Z,1027.56
2018-02-25T07:12:15.288Z,1027.58
2018-02-25T07:13:25.246Z,1027.6
2018-02-25T07:14:34.940Z,1027.55
2018-02-25T07:15:44.628Z,1027.56
2018-02-25T07:16:54.329Z,1027.57
2018-02-25T07:18:04.020Z,1027.63
2018-02-25T07:19:13.462Z,1027.6
2018-02-25T07:20:22.905Z,1027.62
2018-02-25T07:21:32.588Z,1027.56
2018-02-25T07:22:42.030Z,1027.55
2018-02-25T07:23:51.734Z,1027.58
2018-02-25T07:25:01.686Z,1027.62
2018-02-25T07:26:11.868Z,1027.62
2018-02-25T07:27:21.040Z,1027.58
2018-02-25T07:28:30.466Z,1027.62
2018-02-25T07:29:39.899Z,1027.6
2018-02-25T07:30:49.591Z,1027.59
2018-02-25T07:31:59.293Z,1027.62
2018-02-25T07:33:09.295Z,1027.65
2018-02-25T07:34:18.992Z,1027.62
2018-02-25T07:35:28.702Z,1027.64
2018-02-25T07:36:38.447Z,1027.62
2018-02-25T07:37:47.887Z,1027.65
2018-02-25T07:38:57.321Z,1027.64
2018-02-25T07:40:07.270Z,1027.66
2018-02-25T07:41:17.214Z,1027.64
2018-02-25T07:42:27.226Z,1027.68
2018-02-25T07:43:37.057Z,1027.68
2018-02-25T07:44:46.506Z,1027.68
2018-02-25T07:45:56.461Z,1027.67
2018-02-25T07:47:06.405Z,1027.68
2018-02-25T07:48:16.355Z,1027.64
2018-02-25T07:49:26.107Z,1027.64
2018-02-25T07:50:36.074Z,1027.71
2018-02-25T07:51:46.038Z,1027.67
2018-02-25T07:52:56.023Z,1027.69
2018-02-25T07:54:05.978Z,1027.67
2018-02-25T07:55:15.954Z,1027.62
2018-02-25T07:56:25.638Z,1027.64
2018-02-25T07:57:35.579Z,1027.64
2018-02-25T07:58:45.312Z,1027.61
2018-02-25T07:59:55.273Z,1027.62
2018-02-25T08:01:05.240Z,1027.61
2018-02-25T08:02:14.977Z,1027.64
2018-02-25T08:03:24.711Z,1027.61
2018-02-25T08:04:34.488Z,1027.61
2018-02-25T08:05:44.177Z,1027.59
2018-02-25T08:06:54.126Z,1027.63
2018-02-25T08:08:03.808Z,1027.61
2018-02-25T08:09:13.517Z,1027.62
2018-02-25T08:10:23.501Z,1027.64
2018-02-25T08:11:33.194Z,1027.63
2018-02-25T08:12:42.918Z,1027.63
2018-02-25T08:13:52.877Z,1027.62
2018-02-25T08:15:02.329Z,1027.64
2018-02-25T08:16:12.023Z,1027.68
2018-02-25T08:17:21.457Z,1027.73
2018-02-25T08:18:31.155Z,1027.75
2018-02-25T08:19:41.113Z,1027.75
2018-02-25T08:20:51.076Z,1027.69
2018-02-25T08:22:01.282Z,1027.66
2018-02-25T08:23:11.241Z,1027.66
2018-02-25T08:24:20.712Z,1027.7
2018-02-25T08:25:30.468Z,1027.63
2018-02-25T08:26:40.435Z,1027.66
2018-02-25T08:27:50.140Z,1027.71
2018-02-25T08:28:59.839Z,1027.65
2018-02-25T08:30:09.542Z,1027.7
2018-02-25T08:31:19.360Z,1027.69
2018-02-25T08:32:29.331Z,1027.73
2018-02-25T08:33:39.030Z,1027.7
2018-02-25T08:34:48.728Z,1027.69
2018-02-25T08:35:58.162Z,1027.73
2018-02-25T08:37:07.607Z,1027.74
2018-02-25T08:38:17.566Z,1027.72
2018-02-25T08:39:27.536Z,1027.73
2018-02-25T08:40:37.246Z,1027.7
2018-02-25T08:41:46.957Z,1027.72
2018-02-25T08:42:56.980Z,1027.7
2018-02-25T08:44:06.932Z,1027.7
2018-02-25T08:45:16.628Z,1027.7
2018-02-25T08:46:26.340Z,1027.69
2018-02-25T08:47:36.039Z,1027.71
2018-02-25T08:48:46.001Z,1027.74
2018-02-25T08:49:55.716Z,1027.74
2018-02-25T08:51:05.426Z,1027.71
2018-02-25T08:52:15.377Z,1027.67
2018-02-25T08:53:25.078Z,1027.72
2018-02-25T08:54:35.043Z,1027.7
2018-02-25T08:55:44.995Z,1027.7
2018-02-25T08:56:54.956Z,1027.7
2018-02-25T08:58:04.677Z,1027.66
2018-02-25T08:59:14.645Z,1027.67
2018-02-25T09:00:24.344Z,1027.7
2018-02-25T09:01:34.326Z,1027.71
2018-02-25T09:02:44.028Z,1027.75
2018-02-25T09:03:53.740Z,1027.76
2018-02-25T09:05:03.451Z,1027.71
2018-02-25T09:06:13.160Z,1027.71
2018-02-25T09:07:23.129Z,1027.7
2018-02-25T09:08:32.584Z,1027.71
2018-02-25T09:09:42.029Z,1027.62
2018-02-25T09:10:51.735Z,1027.67
2018-02-25T09:12:01.440Z,1027.69
2018-02-25T09:13:11.398Z,1027.66
2018-02-25T09:14:21.374Z,1027.64
2018-02-25T09:15:31.077Z,1027.64
2018-02-25T09:16:40.787Z,1027.63
2018-02-25T09:17:50.772Z,1027.63
2018-02-25T09:19:00.227Z,1027.63
2018-02-25T09:20:09.946Z,1027.62
2018-02-25T09:21:19.791Z,1027.64
2018-02-25T09:22:29.508Z,1027.62
2018-02-25T09:23:39.282Z,1027.61
2018-02-25T09:24:48.997Z,1027.62
2018-02-25T09:25:58.965Z,1027.57
2018-02-25T09:27:08.689Z,1027.63
2018-02-25T09:28:18.676Z,1027.57
2018-02-25T09:29:28.402Z,1027.58
2018-02-25T09:30:37.852Z,1027.58
2018-02-25T09:31:47.574Z,1027.58
2018-02-25T09:32:57.536Z,1027.51
2018-02-25T09:34:06.964Z,1027.5
2018-02-25T09:35:16.667Z,1027.5
2018-02-25T09:36:26.377Z,1027.51
2018-02-25T09:37:36.100Z,1027.48
2018-02-25T09:38:46.061Z,1027.48
2018-02-25T09:39:55.780Z,1027.49
2018-02-25T09:41:05.778Z,1027.46
2018-02-25T09:42:15.755Z,1027.48
2018-02-25T09:43:25.519Z,1027.46
2018-02-25T09:44:35.631Z,1027.4
2018-02-25T09:45:45.597Z,1027.44
2018-02-25T09:46:55.371Z,1027.39
2018-02-25T09:48:04.552Z,1027.35
2018-02-25T09:49:13.996Z,1027.33
2018-02-25T09:50:23.735Z,1027.33
2018-02-25T09:51:33.471Z,1027.33
2018-02-25T09:52:43.193Z,1027.29
2018-02-25T09:53:53.180Z,1027.37
2018-02-25T09:55:02.886Z,1027.33
2018-02-25T09:56:12.599Z,1027.3
2018-02-25T09:57:22.316Z,1027.35
2018-02-25T09:58:32.039Z,1027.32
2018-02-25T09:59:41.508Z,1027.27
2018-02-25T10:00:50.709Z,1027.23
2018-02-25T10:02:00.424Z,1027.25
2018-02-25T10:03:10.141Z,1027.23
2018-02-25T10:04:20.111Z,1027.23
2018-02-25T10:05:29.824Z,1027.13
2018-02-25T10:06:39.786Z,1027.19
2018-02-25T10:07:49.758Z,1027.19
2018-02-25T10:08:59.518Z,1027.15
2018-02-25T10:10:09.294Z,1027.1
2018-02-25T10:11:19.013Z,1027.13
2018-02-25T10:12:28.734Z,1027.05
2018-02-25T10:13:38.704Z,1027.06
2018-02-25T10:14:48.443Z,1027.04
2018-02-25T10:15:58.156Z,1027.03
2018-02-25T10:17:07.879Z,1027.04
2018-02-25T10:18:17.854Z,1027
2018-02-25T10:19:27.821Z,1026.95
2018-02-25T10:20:37.057Z,1026.97
2018-02-25T10:21:47.043Z,1026.93
2018-02-25T10:22:57.014Z,1026.94
2018-02-25T10:24:06.464Z,1026.9
2018-02-25T10:25:16.422Z,1026.91
2018-02-25T10:26:26.134Z,1026.93
2018-02-25T10:27:35.878Z,1026.9
2018-02-25T10:28:45.592Z,1026.85
2018-02-25T10:29:55.296Z,1026.86
2018-02-25T10:31:05.277Z,1026.87
2018-02-25T10:32:15.252Z,1026.84
2018-02-25T10:33:24.695Z,1026.86
2018-02-25T10:34:34.672Z,1026.87
2018-02-25T10:35:44.637Z,1026.84
2018-02-25T10:36:54.617Z,1026.75
2018-02-25T10:38:04.591Z,1026.74
2018-02-25T10:39:14.054Z,1026.78
2018-02-25T10:40:24.074Z,1026.77
2018-02-25T10:41:34.059Z,1026.7
2018-02-25T10:42:43.788Z,1026.74
2018-02-25T10:43:53.760Z,1026.7
2018-02-25T10:45:03.484Z,1026.78
2018-02-25T10:46:13.193Z,1026.75
2018-02-25T10:47:23.211Z,1026.7
2018-02-25T10:48:32.657Z,1026.69
2018-02-25T10:49:42.366Z,1026.69
2018-02-25T10:50:52.074Z,1026.64
2018-02-25T10:52:01.542Z,1026.62
2018-02-25T10:53:11.004Z,1026.62
2018-02-25T10:54:21.029Z,1026.56
2018-02-25T10:55:31.044Z,1026.57
2018-02-25T10:56:40.767Z,1026.6
2018-02-25T10:57:50.215Z,1026.61
2018-02-25T10:58:59.930Z,1026.58
2018-02-25T11:00:09.931Z,1026.49
2018-02-25T11:01:19.409Z,1026.49
2018-02-25T11:02:29.124Z,1026.5
2018-02-25T11:03:39.107Z,1026.48
2018-02-25T11:04:48.831Z,1026.48
2018-02-25T11:05:58.554Z,1026.49
2018-02-25T11:07:08.269Z,1026.49
2018-02-25T11:08:18.255Z,1026.5
2018-02-25T11:09:27.987Z,1026.44
2018-02-25T11:10:37.961Z,1026.4
2018-02-25T11:11:47.665Z,1026.42
2018-02-25T11:12:57.391Z,1026.38
2018-02-25T11:14:07.098Z,1026.41
2018-02-25T11:15:16.809Z,1026.37
2018-02-25T11:16:26.939Z,1026.37
2018-02-25T11:17:36.659Z,1026.38
2018-02-25T11:18:46.621Z,1026.34
2018-02-25T11:19:56.608Z,1026.34
2018-02-25T11:21:06.337Z,1026.36
2018-02-25T11:22:15.800Z,1026.29
2018-02-25T11:23:25.544Z,1026.28
2018-02-25T11:24:35.011Z,1026.26
2018-02-25T11:25:44.465Z,1026.22
2018-02-25T11:26:54.437Z,1026.21
2018-02-25T11:28:04.418Z,1026.19
2018-02-25T11:29:14.136Z,1026.2
2018-02-25T11:30:24.126Z,1026.2
2018-02-25T11:31:33.981Z,1026.16
2018-02-25T11:32:43.763Z,1026.11
2018-02-25T11:33:53.787Z,1026.11
2018-02-25T11:35:03.487Z,1026.12
2018-02-25T11:36:13.200Z,1026.12
2018-02-25T11:37:23.194Z,1026.08
2018-02-25T11:38:32.901Z,1026.04
2018-02-25T11:39:42.616Z,1026.05
2018-02-25T11:40:52.587Z,1026.05
2018-02-25T11:42:02.574Z,1026.07
2018-02-25T11:43:12.050Z,1026.07
2018-02-25T11:44:22.065Z,1026.01
2018-02-25T11:45:32.062Z,1026.03
2018-02-25T11:46:41.259Z,1026.03
2018-02-25T11:47:50.985Z,1026.01
2018-02-25T11:49:00.703Z,1025.95
2018-02-25T11:50:10.159Z,1025.95
2018-02-25T11:51:20.132Z,1025.92
2018-02-25T11:52:29.840Z,1025.91
2018-02-25T11:53:39.592Z,1025.95
2018-02-25T11:54:49.312Z,1025.95
2018-02-25T11:55:59.028Z,1025.9
2018-02-25T11:57:08.743Z,1025.92
2018-02-25T11:58:18.464Z,1025.9
2018-02-25T11:59:27.922Z,1025.91
2018-02-25T12:00:37.898Z,1025.91
2018-02-25T12:01:47.878Z,1025.84
2018-02-25T12:02:57.849Z,1025.85
2018-02-25T12:04:07.316Z,1025.86
2018-02-25T12:05:17.037Z,1025.82
2018-02-25T12:06:26.506Z,1025.88
2018-02-25T12:07:36.480Z,1025.83
2018-02-25T12:08:46.457Z,1025.81
2018-02-25T12:09:56.174Z,1025.85
2018-02-25T12:11:06.272Z,1025.83
2018-02-25T12:12:15.998Z,1025.82
2018-02-25T12:13:25.974Z,1025.85
2018-02-25T12:14:35.694Z,1025.8
2018-02-25T12:15:45.667Z,1025.79
2018-02-25T12:16:55.131Z,1025.87
2018-02-25T12:18:05.107Z,1025.81
2018-02-25T12:19:14.835Z,1025.81
2018-02-25T12:20:24.551Z,1025.76
2018-02-25T12:21:34.422Z,1025.83
2018-02-25T12:22:43.634Z,1025.81
2018-02-25T12:23:53.370Z,1025.79
2018-02-25T12:25:03.097Z,1025.77
2018-02-25T12:26:12.554Z,1025.78
2018-02-25T12:27:22.021Z,1025.83
2018-02-25T12:28:31.755Z,1025.79
2018-02-25T12:29:41.733Z,1025.82
2018-02-25T12:30:51.464Z,1025.81
2018-02-25T12:32:01.445Z,1025.73
2018-02-25T12:33:11.442Z,1025.78
2018-02-25T12:34:21.154Z,1025.73
2018-02-25T12:35:31.137Z,1025.75
2018-02-25T12:36:40.848Z,1025.74
2018-02-25T12:37:50.835Z,1025.7
2018-02-25T12:39:01.009Z,1025.64
2018-02-25T12:40:10.734Z,1025.68
2018-02-25T12:41:20.735Z,1025.67
2018-02-25T12:42:30.203Z,1025.72
2018-02-25T12:43:39.658Z,1025.68
2018-02-25T12:44:49.371Z,1025.66
2018-02-25T12:45:59.369Z,1025.63
2018-02-25T12:47:09.078Z,1025.65
2018-02-25T12:48:18.806Z,1025.59
2018-02-25T12:49:28.276Z,1025.54
2018-02-25T12:50:37.986Z,1025.59
2018-02-25T12:51:47.696Z,1025.63
2018-02-25T12:52:57.140Z,1025.63
2018-02-25T12:54:06.594Z,1025.59
2018-02-25T12:55:16.325Z,1025.57
2018-02-25T12:56:26.317Z,1025.57
2018-02-25T12:57:36.042Z,1025.6
2018-02-25T12:58:46.066Z,1025.55
2018-02-25T12:59:56.063Z,1025.54
2018-02-25T13:01:05.772Z,1025.54
2018-02-25T13:02:15.495Z,1025.47
2018-02-25T13:03:25.503Z,1025.49
2018-02-25T13:04:35.238Z,1025.49
2018-02-25T13:05:44.951Z,1025.48
2018-02-25T13:06:54.914Z,1025.43
2018-02-25T13:08:04.892Z,1025.39
2018-02-25T13:09:14.881Z,1025.44
2018-02-25T13:10:24.345Z,1025.39
2018-02-25T13:11:34.065Z,1025.36
2018-02-25T13:12:44.040Z,1025.34
2018-02-25T13:13:53.757Z,1025.37
2018-02-25T13:15:03.746Z,1025.39
2018-02-25T13:16:13.480Z,1025.38
2018-02-25T13:17:23.451Z,1025.39
2018-02-25T13:18:33.427Z,1025.28
2018-02-25T13:19:43.425Z,1025.3
2018-02-25T13:20:53.140Z,1025.27
2018-02-25T13:22:02.870Z,1025.31
2018-02-25T13:23:12.859Z,1025.31
2018-02-25T13:24:22.582Z,1025.32
2018-02-25T13:25:32.684Z,1025.33
2018-02-25T13:26:42.393Z,1025.31
2018-02-25T13:27:52.375Z,1025.29
2018-02-25T13:29:02.344Z,1025.31
2018-02-25T13:30:12.318Z,1025.31
2018-02-25T13:31:22.026Z,1025.28
2018-02-25T13:32:32.010Z,1025.26
2018-02-25T13:33:41.991Z,1025.27
2018-02-25T13:34:51.436Z,1025.26
2018-02-25T13:36:01.404Z,1025.28
2018-02-25T13:37:11.375Z,1025.25
2018-02-25T13:38:21.373Z,1025.27
2018-02-25T13:39:31.082Z,1025.22
2018-02-25T13:40:41.063Z,1025.24
2018-02-25T13:41:50.777Z,1025.2
2018-02-25T13:43:00.495Z,1025.21
2018-02-25T13:44:10.238Z,1025.16
2018-02-25T13:45:20.217Z,1025.15
2018-02-25T13:46:29.665Z,1025.19
2018-02-25T13:47:39.113Z,1025.22
2018-02-25T13:48:48.567Z,1025.15
2018-02-25T13:49:57.773Z,1025.14
2018-02-25T13:51:07.748Z,1025.16
2018-02-25T13:52:16.950Z,1025.18
2018-02-25T13:53:26.953Z,1025.15
2018-02-25T13:54:36.933Z,1025.13
2018-02-25T13:55:46.387Z,1025.14
2018-02-25T13:56:55.848Z,1025.09
2018-02-25T13:58:05.851Z,1025.14
2018-02-25T13:59:15.618Z,1025.13
2018-02-25T14:00:25.077Z,1025.13
2018-02-25T14:01:34.784Z,1025.12
2018-02-25T14:02:44.780Z,1025.07
2018-02-25T14:03:54.758Z,1025.12
2018-02-25T14:05:04.727Z,1025.09
2018-02-25T14:06:14.690Z,1025.06
2018-02-25T14:07:24.417Z,1025.06